sensor_id;sensor_type;location;lat;lon;timestamp;temperature;humidity
53498;DHT22;39382;47.168;16.008;2022-10-19T00:00:16;11.30;99.90
53498;DHT22;39382;47.168;16.008;2022-10-19T00:02:41;11.30;99.90
53498;DHT22;39382;47.168;16.008;2022-10-19T00:05:07;11.30;99.90
53498;DHT22;39382;47.168;16.008;2022-10-19T00:07:32;11.30;99.90
53498;DHT22;39382;47.168;16.008;2022-10-19T00:09:58;11.30;99.90
53498;DHT22;39382;47.168;16.008;2022-10-19T00:12:23;11.30;99.90
53498;DHT22;39382;47.168;16.008;2022-10-19T00:14:49;11.40;99.90
53498;DHT22;39382;47.168;16.008;2022-10-19T00:17:15;11.40;99.90
53498;DHT22;39382;47.168;16.008;2022-10-19T00:19:40;11.40;99.90
53498;DHT22;39382;47.168;16.008;2022-10-19T00:22:06;11.40;99.90
53498;DHT22;39382;47.168;16.008;2022-10-19T00:24:31;11.40;99.90
53498;DHT22;39382;47.168;16.008;2022-10-19T00:26:57;11.50;99.90
53498;DHT22;39382;47.168;16.008;2022-10-19T00:29:22;11.40;99.90
53498;DHT22;39382;47.168;16.008;2022-10-19T00:31:49;11.40;99.90
53498;DHT22;39382;47.168;16.008;2022-10-19T00:34:14;11.50;99.90
53498;DHT22;39382;47.168;16.008;2022-10-19T00:36:40;11.50;99.90
53498;DHT22;39382;47.168;16.008;2022-10-19T00:39:07;11.50;99.90
53498;DHT22;39382;47.168;16.008;2022-10-19T00:41:35;11.50;99.90
53498;DHT22;39382;47.168;16.008;2022-10-19T00:46:31;11.60;99.90
53498;DHT22;39382;47.168;16.008;2022-10-19T00:48:58;11.60;99.90
53498;DHT22;39382;47.168;16.008;2022-10-19T00:51:25;11.60;99.90
53498;DHT22;39382;47.168;16.008;2022-10-19T00:53:52;11.70;99.90
53498;DHT22;39382;47.168;16.008;2022-10-19T00:56:17;11.70;99.90
53498;DHT22;39382;47.168;16.008;2022-10-19T00:58:43;11.70;99.90
53498;DHT22;39382;47.168;16.008;2022-10-19T01:01:10;11.70;99.90
53498;DHT22;39382;47.168;16.008;2022-10-19T01:03:37;11.70;99.90
53498;DHT22;39382;47.168;16.008;2022-10-19T01:06:03;11.70;99.90
53498;DHT22;39382;47.168;16.008;2022-10-19T01:08:29;11.70;99.90
53498;DHT22;39382;47.168;16.008;2022-10-19T01:13:23;11.70;99.90
53498;DHT22;39382;47.168;16.008;2022-10-19T01:15:54;11.70;99.90
53498;DHT22;39382;47.168;16.008;2022-10-19T01:18:28;11.70;99.90
53498;DHT22;39382;47.168;16.008;2022-10-19T01:29:00;11.60;99.90
53498;DHT22;39382;47.168;16.008;2022-10-19T01:31:37;11.60;99.90
53498;DHT22;39382;47.168;16.008;2022-10-19T01:36:34;11.50;99.90
53498;DHT22;39382;47.168;16.008;2022-10-19T01:39:27;11.40;99.90
53498;DHT22;39382;47.168;16.008;2022-10-19T01:41:52;11.40;99.90
53498;DHT22;39382;47.168;16.008;2022-10-19T01:44:22;11.30;99.90
53498;DHT22;39382;47.168;16.008;2022-10-19T01:46:57;11.30;99.90
53498;DHT22;39382;47.168;16.008;2022-10-19T01:49:29;11.30;99.90
53498;DHT22;39382;47.168;16.008;2022-10-19T01:51:58;11.20;99.90
53498;DHT22;39382;47.168;16.008;2022-10-19T01:54:25;11.10;99.90
53498;DHT22;39382;47.168;16.008;2022-10-19T01:56:54;11.10;99.90
53498;DHT22;39382;47.168;16.008;2022-10-19T01:59:21;11.00;99.90
53498;DHT22;39382;47.168;16.008;2022-10-19T02:01:47;11.00;99.90
53498;DHT22;39382;47.168;16.008;2022-10-19T02:04:16;10.90;99.90
53498;DHT22;39382;47.168;16.008;2022-10-19T02:06:42;10.90;99.90
53498;DHT22;39382;47.168;16.008;2022-10-19T02:09:08;10.80;99.90
53498;DHT22;39382;47.168;16.008;2022-10-19T02:11:34;10.80;99.90
53498;DHT22;39382;47.168;16.008;2022-10-19T02:14:05;10.70;99.90
53498;DHT22;39382;47.168;16.008;2022-10-19T02:16:33;10.60;99.90
53498;DHT22;39382;47.168;16.008;2022-10-19T02:19:00;10.60;99.90
53498;DHT22;39382;47.168;16.008;2022-10-19T02:21:27;10.60;99.90
53498;DHT22;39382;47.168;16.008;2022-10-19T02:23:53;10.60;99.90
53498;DHT22;39382;47.168;16.008;2022-10-19T02:26:18;10.60;99.90
53498;DHT22;39382;47.168;16.008;2022-10-19T02:28:44;10.60;99.90
53498;DHT22;39382;47.168;16.008;2022-10-19T02:31:10;10.60;99.90
53498;DHT22;39382;47.168;16.008;2022-10-19T02:33:36;10.60;99.90
53498;DHT22;39382;47.168;16.008;2022-10-19T02:36:02;10.50;99.90
53498;DHT22;39382;47.168;16.008;2022-10-19T02:38:28;10.60;99.90
53498;DHT22;39382;47.168;16.008;2022-10-19T02:40:58;10.60;99.90
53498;DHT22;39382;47.168;16.008;2022-10-19T02:43:24;10.60;99.90
53498;DHT22;39382;47.168;16.008;2022-10-19T02:45:53;10.60;99.90
53498;DHT22;39382;47.168;16.008;2022-10-19T02:48:21;10.60;99.90
53498;DHT22;39382;47.168;16.008;2022-10-19T02:50:47;10.60;99.90
53498;DHT22;39382;47.168;16.008;2022-10-19T02:53:13;10.60;99.90
53498;DHT22;39382;47.168;16.008;2022-10-19T02:55:39;10.60;99.90
53498;DHT22;39382;47.168;16.008;2022-10-19T02:58:05;10.60;99.90
53498;DHT22;39382;47.168;16.008;2022-10-19T03:00:31;10.70;99.90
53498;DHT22;39382;47.168;16.008;2022-10-19T03:02:56;10.70;99.90
53498;DHT22;39382;47.168;16.008;2022-10-19T03:05:22;10.70;99.90
53498;DHT22;39382;47.168;16.008;2022-10-19T03:07:47;10.70;99.90
53498;DHT22;39382;47.168;16.008;2022-10-19T03:10:13;10.80;99.90
53498;DHT22;39382;47.168;16.008;2022-10-19T03:12:38;10.80;99.90
53498;DHT22;39382;47.168;16.008;2022-10-19T03:15:04;10.80;99.90
53498;DHT22;39382;47.168;16.008;2022-10-19T03:17:29;10.90;99.90
53498;DHT22;39382;47.168;16.008;2022-10-19T03:19:55;10.90;99.90
53498;DHT22;39382;47.168;16.008;2022-10-19T03:22:21;10.80;99.90
53498;DHT22;39382;47.168;16.008;2022-10-19T03:24:46;10.90;99.90
53498;DHT22;39382;47.168;16.008;2022-10-19T03:27:12;10.90;99.90
53498;DHT22;39382;47.168;16.008;2022-10-19T03:29:37;10.90;99.90
53498;DHT22;39382;47.168;16.008;2022-10-19T03:32:03;10.90;99.90
53498;DHT22;39382;47.168;16.008;2022-10-19T03:34:28;10.80;99.90
53498;DHT22;39382;47.168;16.008;2022-10-19T03:36:54;10.80;99.90
53498;DHT22;39382;47.168;16.008;2022-10-19T03:39:21;10.80;99.90
53498;DHT22;39382;47.168;16.008;2022-10-19T03:41:46;10.80;99.90
53498;DHT22;39382;47.168;16.008;2022-10-19T03:44:12;10.70;99.90
53498;DHT22;39382;47.168;16.008;2022-10-19T03:46:38;10.70;99.90
53498;DHT22;39382;47.168;16.008;2022-10-19T03:49:04;10.70;99.90
53498;DHT22;39382;47.168;16.008;2022-10-19T03:51:30;10.60;99.90
53498;DHT22;39382;47.168;16.008;2022-10-19T03:53:57;10.60;99.90
53498;DHT22;39382;47.168;16.008;2022-10-19T03:56:23;10.50;99.90
53498;DHT22;39382;47.168;16.008;2022-10-19T03:58:49;10.50;99.90
53498;DHT22;39382;47.168;16.008;2022-10-19T04:01:16;10.40;99.90
53498;DHT22;39382;47.168;16.008;2022-10-19T04:03:42;10.40;99.90
53498;DHT22;39382;47.168;16.008;2022-10-19T04:06:15;10.40;99.90
53498;DHT22;39382;47.168;16.008;2022-10-19T04:08:41;10.40;99.90
53498;DHT22;39382;47.168;16.008;2022-10-19T04:11:08;10.40;99.90
53498;DHT22;39382;47.168;16.008;2022-10-19T04:13:35;10.30;99.90
53498;DHT22;39382;47.168;16.008;2022-10-19T04:16:00;10.30;99.90
53498;DHT22;39382;47.168;16.008;2022-10-19T04:18:26;10.30;99.90
53498;DHT22;39382;47.168;16.008;2022-10-19T04:21:02;10.20;99.90
53498;DHT22;39382;47.168;16.008;2022-10-19T04:23:28;10.50;99.90
53498;DHT22;39382;47.168;16.008;2022-10-19T04:25:58;10.50;99.90
53498;DHT22;39382;47.168;16.008;2022-10-19T04:28:24;10.50;99.90
53498;DHT22;39382;47.168;16.008;2022-10-19T04:30:49;10.40;99.90
53498;DHT22;39382;47.168;16.008;2022-10-19T04:33:14;10.30;99.90
53498;DHT22;39382;47.168;16.008;2022-10-19T04:35:40;10.30;99.90
53498;DHT22;39382;47.168;16.008;2022-10-19T04:38:06;10.20;99.90
53498;DHT22;39382;47.168;16.008;2022-10-19T04:40:33;10.20;99.90
53498;DHT22;39382;47.168;16.008;2022-10-19T04:42:58;10.10;99.90
53498;DHT22;39382;47.168;16.008;2022-10-19T04:45:24;10.10;99.90
53498;DHT22;39382;47.168;16.008;2022-10-19T04:47:49;10.10;99.90
53498;DHT22;39382;47.168;16.008;2022-10-19T04:50:15;10.10;99.90
53498;DHT22;39382;47.168;16.008;2022-10-19T04:52:42;10.00;99.90
53498;DHT22;39382;47.168;16.008;2022-10-19T04:55:08;10.00;99.90
53498;DHT22;39382;47.168;16.008;2022-10-19T04:57:33;10.00;99.90
53498;DHT22;39382;47.168;16.008;2022-10-19T04:59:59;9.90;99.90
53498;DHT22;39382;47.168;16.008;2022-10-19T05:02:24;9.90;99.90
53498;DHT22;39382;47.168;16.008;2022-10-19T05:04:50;9.80;99.90
53498;DHT22;39382;47.168;16.008;2022-10-19T05:07:15;10.60;99.90
53498;DHT22;39382;47.168;16.008;2022-10-19T05:09:41;10.60;99.90
53498;DHT22;39382;47.168;16.008;2022-10-19T05:12:06;10.50;99.90
53498;DHT22;39382;47.168;16.008;2022-10-19T05:14:32;10.30;99.90
53498;DHT22;39382;47.168;16.008;2022-10-19T05:16:58;10.10;99.90
53498;DHT22;39382;47.168;16.008;2022-10-19T05:19:23;9.90;99.90
53498;DHT22;39382;47.168;16.008;2022-10-19T05:21:49;9.90;99.90
53498;DHT22;39382;47.168;16.008;2022-10-19T05:24:14;9.80;99.90
53498;DHT22;39382;47.168;16.008;2022-10-19T05:26:39;9.80;99.90
53498;DHT22;39382;47.168;16.008;2022-10-19T05:29:05;9.80;99.90
53498;DHT22;39382;47.168;16.008;2022-10-19T05:31:31;9.80;99.90
53498;DHT22;39382;47.168;16.008;2022-10-19T05:33:57;9.80;99.90
53498;DHT22;39382;47.168;16.008;2022-10-19T05:36:26;9.80;99.90
53498;DHT22;39382;47.168;16.008;2022-10-19T05:38:53;9.80;99.90
53498;DHT22;39382;47.168;16.008;2022-10-19T05:41:19;9.80;99.90
53498;DHT22;39382;47.168;16.008;2022-10-19T05:43:45;9.90;99.90
53498;DHT22;39382;47.168;16.008;2022-10-19T05:46:12;9.90;99.90
53498;DHT22;39382;47.168;16.008;2022-10-19T05:48:38;9.90;99.90
53498;DHT22;39382;47.168;16.008;2022-10-19T05:51:04;9.90;99.90
53498;DHT22;39382;47.168;16.008;2022-10-19T05:53:30;9.90;99.90
53498;DHT22;39382;47.168;16.008;2022-10-19T05:55:56;9.90;99.90
53498;DHT22;39382;47.168;16.008;2022-10-19T05:58:22;10.00;99.90
53498;DHT22;39382;47.168;16.008;2022-10-19T06:00:53;10.00;99.90
53498;DHT22;39382;47.168;16.008;2022-10-19T06:03:20;10.00;99.90
53498;DHT22;39382;47.168;16.008;2022-10-19T06:05:47;10.00;99.90
53498;DHT22;39382;47.168;16.008;2022-10-19T06:08:12;10.00;99.90
53498;DHT22;39382;47.168;16.008;2022-10-19T06:10:38;10.10;99.90
53498;DHT22;39382;47.168;16.008;2022-10-19T06:13:03;10.00;99.90
53498;DHT22;39382;47.168;16.008;2022-10-19T06:15:31;10.20;99.90
53498;DHT22;39382;47.168;16.008;2022-10-19T06:17:56;10.20;99.90
53498;DHT22;39382;47.168;16.008;2022-10-19T06:20:22;10.30;99.90
53498;DHT22;39382;47.168;16.008;2022-10-19T06:22:47;10.30;99.90
53498;DHT22;39382;47.168;16.008;2022-10-19T06:25:13;10.40;99.90
53498;DHT22;39382;47.168;16.008;2022-10-19T06:27:38;10.50;99.90
53498;DHT22;39382;47.168;16.008;2022-10-19T06:30:04;11.40;99.90
53498;DHT22;39382;47.168;16.008;2022-10-19T06:32:30;12.20;99.90
53498;DHT22;39382;47.168;16.008;2022-10-19T06:34:58;12.80;99.90
53498;DHT22;39382;47.168;16.008;2022-10-19T06:37:23;13.20;99.90
53498;DHT22;39382;47.168;16.008;2022-10-19T06:39:49;13.10;99.90
53498;DHT22;39382;47.168;16.008;2022-10-19T06:42:14;13.00;99.90
53498;DHT22;39382;47.168;16.008;2022-10-19T06:44:40;12.70;99.90
53498;DHT22;39382;47.168;16.008;2022-10-19T06:47:05;12.60;99.90
53498;DHT22;39382;47.168;16.008;2022-10-19T06:49:30;12.60;99.90
53498;DHT22;39382;47.168;16.008;2022-10-19T06:51:56;12.60;99.90
53498;DHT22;39382;47.168;16.008;2022-10-19T06:54:21;12.60;99.90
53498;DHT22;39382;47.168;16.008;2022-10-19T06:56:49;12.60;99.90
53498;DHT22;39382;47.168;16.008;2022-10-19T06:59:15;12.70;99.90
53498;DHT22;39382;47.168;16.008;2022-10-19T07:01:41;12.90;99.90
53498;DHT22;39382;47.168;16.008;2022-10-19T07:04:07;13.00;99.90
53498;DHT22;39382;47.168;16.008;2022-10-19T07:06:32;13.10;99.90
53498;DHT22;39382;47.168;16.008;2022-10-19T07:08:58;13.20;99.90
53498;DHT22;39382;47.168;16.008;2022-10-19T07:11:23;13.30;99.90
53498;DHT22;39382;47.168;16.008;2022-10-19T07:13:50;13.40;99.90
53498;DHT22;39382;47.168;16.008;2022-10-19T07:16:16;13.50;99.90
53498;DHT22;39382;47.168;16.008;2022-10-19T07:18:42;13.50;99.90
53498;DHT22;39382;47.168;16.008;2022-10-19T07:21:08;13.60;99.90
53498;DHT22;39382;47.168;16.008;2022-10-19T07:23:35;13.70;99.90
53498;DHT22;39382;47.168;16.008;2022-10-19T07:26:05;13.90;99.90
53498;DHT22;39382;47.168;16.008;2022-10-19T07:28:31;14.00;99.90
53498;DHT22;39382;47.168;16.008;2022-10-19T07:30:56;14.10;99.90
53498;DHT22;39382;47.168;16.008;2022-10-19T07:33:22;14.20;99.90
53498;DHT22;39382;47.168;16.008;2022-10-19T07:35:48;14.20;99.90
53498;DHT22;39382;47.168;16.008;2022-10-19T07:38:14;14.20;99.90
53498;DHT22;39382;47.168;16.008;2022-10-19T07:40:39;14.20;99.90
53498;DHT22;39382;47.168;16.008;2022-10-19T07:43:05;14.20;99.90
53498;DHT22;39382;47.168;16.008;2022-10-19T07:45:30;14.30;99.90
53498;DHT22;39382;47.168;16.008;2022-10-19T07:47:58;14.40;99.90
53498;DHT22;39382;47.168;16.008;2022-10-19T07:50:23;14.60;99.90
53498;DHT22;39382;47.168;16.008;2022-10-19T07:52:51;14.80;99.90
53498;DHT22;39382;47.168;16.008;2022-10-19T07:55:17;15.00;99.90
53498;DHT22;39382;47.168;16.008;2022-10-19T07:57:45;15.10;99.90
53498;DHT22;39382;47.168;16.008;2022-10-19T08:00:11;15.20;99.90
53498;DHT22;39382;47.168;16.008;2022-10-19T08:02:36;15.30;99.90
53498;DHT22;39382;47.168;16.008;2022-10-19T08:05:02;15.30;99.90
53498;DHT22;39382;47.168;16.008;2022-10-19T08:07:27;15.30;99.90
53498;DHT22;39382;47.168;16.008;2022-10-19T08:09:53;15.40;99.90
53498;DHT22;39382;47.168;16.008;2022-10-19T08:12:18;15.50;99.90
53498;DHT22;39382;47.168;16.008;2022-10-19T08:14:44;15.80;99.90
53498;DHT22;39382;47.168;16.008;2022-10-19T08:17:10;16.00;99.90
53498;DHT22;39382;47.168;16.008;2022-10-19T08:19:36;16.20;99.90
53498;DHT22;39382;47.168;16.008;2022-10-19T08:22:05;16.40;99.90
53498;DHT22;39382;47.168;16.008;2022-10-19T08:24:31;16.50;99.90
53498;DHT22;39382;47.168;16.008;2022-10-19T08:26:57;16.50;99.90
53498;DHT22;39382;47.168;16.008;2022-10-19T08:29:22;16.60;99.90
53498;DHT22;39382;47.168;16.008;2022-10-19T08:31:48;16.70;99.90
53498;DHT22;39382;47.168;16.008;2022-10-19T08:34:14;16.70;99.90
53498;DHT22;39382;47.168;16.008;2022-10-19T08:36:40;16.80;99.90
53498;DHT22;39382;47.168;16.008;2022-10-19T08:39:06;16.80;99.90
53498;DHT22;39382;47.168;16.008;2022-10-19T08:41:34;16.80;99.90
53498;DHT22;39382;47.168;16.008;2022-10-19T08:44:08;16.90;99.90
53498;DHT22;39382;47.168;16.008;2022-10-19T08:49:08;17.40;99.20
53498;DHT22;39382;47.168;16.008;2022-10-19T08:51:37;17.50;98.60
53498;DHT22;39382;47.168;16.008;2022-10-19T08:54:05;17.60;97.00
53498;DHT22;39382;47.168;16.008;2022-10-19T08:56:39;17.60;97.80
53498;DHT22;39382;47.168;16.008;2022-10-19T09:04:40;17.80;98.10
53498;DHT22;39382;47.168;16.008;2022-10-19T09:09:36;17.90;96.10
53498;DHT22;39382;47.168;16.008;2022-10-19T09:12:05;17.90;96.80
53498;DHT22;39382;47.168;16.008;2022-10-19T09:14:32;17.90;96.60
53498;DHT22;39382;47.168;16.008;2022-10-19T09:17:08;17.90;97.00
53498;DHT22;39382;47.168;16.008;2022-10-19T09:19:34;17.90;97.00
53498;DHT22;39382;47.168;16.008;2022-10-19T09:22:04;17.90;96.80
53498;DHT22;39382;47.168;16.008;2022-10-19T09:24:41;18.00;97.30
53498;DHT22;39382;47.168;16.008;2022-10-19T09:27:10;18.10;96.90
53498;DHT22;39382;47.168;16.008;2022-10-19T09:29:40;18.20;96.60
53498;DHT22;39382;47.168;16.008;2022-10-19T09:32:12;18.40;95.40
53498;DHT22;39382;47.168;16.008;2022-10-19T09:34:43;18.60;95.20
53498;DHT22;39382;47.168;16.008;2022-10-19T09:37:10;18.70;95.00
53498;DHT22;39382;47.168;16.008;2022-10-19T09:39:36;18.70;93.40
53498;DHT22;39382;47.168;16.008;2022-10-19T09:42:21;18.70;92.80
53498;DHT22;39382;47.168;16.008;2022-10-19T09:44:48;18.70;93.00
53498;DHT22;39382;47.168;16.008;2022-10-19T09:49:44;18.80;92.70
53498;DHT22;39382;47.168;16.008;2022-10-19T09:57:50;18.90;92.70
53498;DHT22;39382;47.168;16.008;2022-10-19T10:00:23;18.80;92.40
53498;DHT22;39382;47.168;16.008;2022-10-19T10:02:50;18.60;92.10
53498;DHT22;39382;47.168;16.008;2022-10-19T10:05:16;18.70;93.00
53498;DHT22;39382;47.168;16.008;2022-10-19T10:07:42;18.60;93.10
53498;DHT22;39382;47.168;16.008;2022-10-19T10:10:18;18.60;93.10
53498;DHT22;39382;47.168;16.008;2022-10-19T10:12:44;18.70;93.50
53498;DHT22;39382;47.168;16.008;2022-10-19T10:15:14;18.60;93.70
53498;DHT22;39382;47.168;16.008;2022-10-19T10:17:40;18.60;93.90
53498;DHT22;39382;47.168;16.008;2022-10-19T10:23:04;18.80;94.10
53498;DHT22;39382;47.168;16.008;2022-10-19T10:25:31;18.80;94.30
53498;DHT22;39382;47.168;16.008;2022-10-19T10:27:59;19.00;93.90
53498;DHT22;39382;47.168;16.008;2022-10-19T10:30:25;19.10;93.60
53498;DHT22;39382;47.168;16.008;2022-10-19T10:32:51;19.10;93.00
53498;DHT22;39382;47.168;16.008;2022-10-19T10:35:31;19.20;92.90
53498;DHT22;39382;47.168;16.008;2022-10-19T10:38:06;19.20;93.10
53498;DHT22;39382;47.168;16.008;2022-10-19T10:40:32;19.30;92.50
53498;DHT22;39382;47.168;16.008;2022-10-19T10:43:01;19.40;92.40
53498;DHT22;39382;47.168;16.008;2022-10-19T10:45:36;19.60;92.30
53498;DHT22;39382;47.168;16.008;2022-10-19T10:50:47;19.50;91.50
53498;DHT22;39382;47.168;16.008;2022-10-19T10:53:55;19.40;91.20
53498;DHT22;39382;47.168;16.008;2022-10-19T10:56:02;19.30;91.30
53498;DHT22;39382;47.168;16.008;2022-10-19T11:00:56;19.30;91.60
53498;DHT22;39382;47.168;16.008;2022-10-19T11:03:26;19.20;91.70
53498;DHT22;39382;47.168;16.008;2022-10-19T11:05:57;19.20;91.70
53498;DHT22;39382;47.168;16.008;2022-10-19T11:08:25;19.20;92.10
53498;DHT22;39382;47.168;16.008;2022-10-19T11:10:58;19.10;92.20
53498;DHT22;39382;47.168;16.008;2022-10-19T11:13:29;19.00;92.50
53498;DHT22;39382;47.168;16.008;2022-10-19T11:16:04;19.00;92.50
53498;DHT22;39382;47.168;16.008;2022-10-19T11:18:35;18.90;92.70
53498;DHT22;39382;47.168;16.008;2022-10-19T11:21:12;18.90;92.70
53498;DHT22;39382;47.168;16.008;2022-10-19T11:23:46;18.80;92.50
53498;DHT22;39382;47.168;16.008;2022-10-19T11:26:30;18.80;92.30
53498;DHT22;39382;47.168;16.008;2022-10-19T11:29:59;18.80;92.80
53498;DHT22;39382;47.168;16.008;2022-10-19T11:31:53;18.80;92.30
53498;DHT22;39382;47.168;16.008;2022-10-19T11:36:50;18.80;93.10
53498;DHT22;39382;47.168;16.008;2022-10-19T11:42:12;18.70;93.20
53498;DHT22;39382;47.168;16.008;2022-10-19T11:45:23;18.80;93.60
53498;DHT22;39382;47.168;16.008;2022-10-19T11:52:26;18.90;93.30
53498;DHT22;39382;47.168;16.008;2022-10-19T11:57:56;18.90;93.10
53498;DHT22;39382;47.168;16.008;2022-10-19T12:00:23;18.90;93.00
53498;DHT22;39382;47.168;16.008;2022-10-19T12:12:56;19.20;92.40
53498;DHT22;39382;47.168;16.008;2022-10-19T12:17:52;19.40;91.70
53498;DHT22;39382;47.168;16.008;2022-10-19T12:20:21;19.40;91.40
53498;DHT22;39382;47.168;16.008;2022-10-19T12:22:48;19.40;91.30
53498;DHT22;39382;47.168;16.008;2022-10-19T12:25:13;19.50;91.40
53498;DHT22;39382;47.168;16.008;2022-10-19T12:27:40;19.60;91.00
53498;DHT22;39382;47.168;16.008;2022-10-19T12:30:13;19.60;90.80
53498;DHT22;39382;47.168;16.008;2022-10-19T12:32:43;19.60;91.10
53498;DHT22;39382;47.168;16.008;2022-10-19T12:35:30;19.60;90.50
53498;DHT22;39382;47.168;16.008;2022-10-19T12:38:21;19.60;90.80
53498;DHT22;39382;47.168;16.008;2022-10-19T12:43:20;19.60;90.70
53498;DHT22;39382;47.168;16.008;2022-10-19T12:45:51;19.60;90.50
53498;DHT22;39382;47.168;16.008;2022-10-19T12:48:20;19.50;90.60
53498;DHT22;39382;47.168;16.008;2022-10-19T15:21:46;17.50;98.60
53498;DHT22;39382;47.168;16.008;2022-10-19T15:24:25;17.40;99.00
53498;DHT22;39382;47.168;16.008;2022-10-19T15:26:51;17.40;99.40
53498;DHT22;39382;47.168;16.008;2022-10-19T15:29:19;17.30;99.90
53498;DHT22;39382;47.168;16.008;2022-10-19T15:31:45;17.30;99.90
53498;DHT22;39382;47.168;16.008;2022-10-19T15:34:21;17.20;99.90
53498;DHT22;39382;47.168;16.008;2022-10-19T15:36:57;17.10;99.90
53498;DHT22;39382;47.168;16.008;2022-10-19T15:39:24;17.00;99.90
53498;DHT22;39382;47.168;16.008;2022-10-19T15:41:51;16.90;99.90
53498;DHT22;39382;47.168;16.008;2022-10-19T15:47:22;16.70;99.90
53498;DHT22;39382;47.168;16.008;2022-10-19T15:49:51;16.70;99.90
53498;DHT22;39382;47.168;16.008;2022-10-19T15:52:24;16.60;99.90
53498;DHT22;39382;47.168;16.008;2022-10-19T15:54:50;16.50;99.90
53498;DHT22;39382;47.168;16.008;2022-10-19T15:57:27;16.40;99.90
53498;DHT22;39382;47.168;16.008;2022-10-19T15:59:53;16.40;99.90
53498;DHT22;39382;47.168;16.008;2022-10-19T16:02:20;16.30;99.90
53498;DHT22;39382;47.168;16.008;2022-10-19T16:04:45;16.20;99.90
53498;DHT22;39382;47.168;16.008;2022-10-19T16:07:14;16.10;99.90
53498;DHT22;39382;47.168;16.008;2022-10-19T16:09:43;16.00;99.90
53498;DHT22;39382;47.168;16.008;2022-10-19T16:12:09;16.00;99.90
53498;DHT22;39382;47.168;16.008;2022-10-19T16:14:35;16.00;99.90
53498;DHT22;39382;47.168;16.008;2022-10-19T16:17:00;15.90;99.90
53498;DHT22;39382;47.168;16.008;2022-10-19T16:19:26;15.90;99.90
53498;DHT22;39382;47.168;16.008;2022-10-19T16:21:51;15.90;99.90
53498;DHT22;39382;47.168;16.008;2022-10-19T16:24:17;15.90;99.90
53498;DHT22;39382;47.168;16.008;2022-10-19T16:26:42;15.90;99.90
53498;DHT22;39382;47.168;16.008;2022-10-19T16:29:08;15.80;99.90
53498;DHT22;39382;47.168;16.008;2022-10-19T16:31:33;15.90;99.90
53498;DHT22;39382;47.168;16.008;2022-10-19T16:33:59;15.80;99.90
53498;DHT22;39382;47.168;16.008;2022-10-19T16:36:24;15.80;99.90
53498;DHT22;39382;47.168;16.008;2022-10-19T16:38:50;15.70;99.90
53498;DHT22;39382;47.168;16.008;2022-10-19T16:41:15;15.70;99.90
53498;DHT22;39382;47.168;16.008;2022-10-19T16:43:41;15.70;99.90
53498;DHT22;39382;47.168;16.008;2022-10-19T16:46:06;15.60;99.90
53498;DHT22;39382;47.168;16.008;2022-10-19T16:48:32;15.60;99.90
53498;DHT22;39382;47.168;16.008;2022-10-19T16:53:30;15.50;99.90
53498;DHT22;39382;47.168;16.008;2022-10-19T16:56:02;15.40;99.90
53498;DHT22;39382;47.168;16.008;2022-10-19T16:58:28;15.40;99.90
53498;DHT22;39382;47.168;16.008;2022-10-19T17:00:53;15.30;99.90
53498;DHT22;39382;47.168;16.008;2022-10-19T17:03:21;15.20;99.90
53498;DHT22;39382;47.168;16.008;2022-10-19T17:05:46;15.20;99.90
53498;DHT22;39382;47.168;16.008;2022-10-19T17:08:12;15.20;99.90
53498;DHT22;39382;47.168;16.008;2022-10-19T17:10:37;15.10;99.90
53498;DHT22;39382;47.168;16.008;2022-10-19T17:13:03;15.00;99.90
53498;DHT22;39382;47.168;16.008;2022-10-19T17:15:28;14.90;99.90
53498;DHT22;39382;47.168;16.008;2022-10-19T17:17:54;14.90;99.90
53498;DHT22;39382;47.168;16.008;2022-10-19T17:20:22;14.80;99.90
53498;DHT22;39382;47.168;16.008;2022-10-19T17:22:50;14.70;99.90
53498;DHT22;39382;47.168;16.008;2022-10-19T17:25:16;14.70;99.90
53498;DHT22;39382;47.168;16.008;2022-10-19T17:27:41;14.60;99.90
53498;DHT22;39382;47.168;16.008;2022-10-19T17:30:07;14.60;99.90
53498;DHT22;39382;47.168;16.008;2022-10-19T17:32:33;14.60;99.90
53498;DHT22;39382;47.168;16.008;2022-10-19T17:34:58;14.50;99.90
53498;DHT22;39382;47.168;16.008;2022-10-19T17:37:24;14.50;99.90
53498;DHT22;39382;47.168;16.008;2022-10-19T17:39:49;14.50;99.90
53498;DHT22;39382;47.168;16.008;2022-10-19T17:42:15;14.50;99.90
53498;DHT22;39382;47.168;16.008;2022-10-19T17:44:41;14.40;99.90
53498;DHT22;39382;47.168;16.008;2022-10-19T17:47:06;14.40;99.90
53498;DHT22;39382;47.168;16.008;2022-10-19T17:49:32;14.40;99.90
53498;DHT22;39382;47.168;16.008;2022-10-19T17:51:57;14.40;99.90
53498;DHT22;39382;47.168;16.008;2022-10-19T17:54:23;14.40;99.90
53498;DHT22;39382;47.168;16.008;2022-10-19T17:56:49;14.40;99.90
53498;DHT22;39382;47.168;16.008;2022-10-19T17:59:15;14.50;99.90
53498;DHT22;39382;47.168;16.008;2022-10-19T18:01:40;14.50;99.90
53498;DHT22;39382;47.168;16.008;2022-10-19T18:04:06;14.50;99.90
53498;DHT22;39382;47.168;16.008;2022-10-19T18:06:33;14.50;99.90
53498;DHT22;39382;47.168;16.008;2022-10-19T18:08:59;14.50;99.90
53498;DHT22;39382;47.168;16.008;2022-10-19T18:11:26;14.50;99.90
53498;DHT22;39382;47.168;16.008;2022-10-19T18:13:57;14.50;99.90
53498;DHT22;39382;47.168;16.008;2022-10-19T18:16:27;14.40;99.90
53498;DHT22;39382;47.168;16.008;2022-10-19T18:18:55;14.50;99.90
53498;DHT22;39382;47.168;16.008;2022-10-19T18:21:21;14.40;99.90
53498;DHT22;39382;47.168;16.008;2022-10-19T18:23:49;14.40;99.90
53498;DHT22;39382;47.168;16.008;2022-10-19T18:26:16;14.40;99.90
53498;DHT22;39382;47.168;16.008;2022-10-19T18:28:41;14.40;99.90
53498;DHT22;39382;47.168;16.008;2022-10-19T18:31:20;14.40;99.90
53498;DHT22;39382;47.168;16.008;2022-10-19T18:33:46;14.30;99.90
53498;DHT22;39382;47.168;16.008;2022-10-19T18:36:12;14.30;99.90
53498;DHT22;39382;47.168;16.008;2022-10-19T18:38:38;14.20;99.90
53498;DHT22;39382;47.168;16.008;2022-10-19T18:41:04;14.10;99.90
53498;DHT22;39382;47.168;16.008;2022-10-19T18:43:30;14.00;99.90
53498;DHT22;39382;47.168;16.008;2022-10-19T18:45:56;13.90;99.90
53498;DHT22;39382;47.168;16.008;2022-10-19T18:48:22;13.90;99.90
53498;DHT22;39382;47.168;16.008;2022-10-19T18:50:48;13.80;99.90
53498;DHT22;39382;47.168;16.008;2022-10-19T18:53:14;13.70;99.90
53498;DHT22;39382;47.168;16.008;2022-10-19T18:55:40;13.60;99.90
53498;DHT22;39382;47.168;16.008;2022-10-19T18:58:06;13.60;99.90
53498;DHT22;39382;47.168;16.008;2022-10-19T19:00:31;13.40;99.90
53498;DHT22;39382;47.168;16.008;2022-10-19T19:02:57;13.30;99.90
53498;DHT22;39382;47.168;16.008;2022-10-19T19:05:22;13.30;99.90